Terminal Aerodrome Forecast
Issued by NWS

Home | Current Version | Previous Version | Text Only | Print | Product List | Glossary On
Versions: 1 2 3 4 5 6 7 8 9 10 11 12 13 14
472
FTUS46 KSGX 260753 AAA
TAFSNA
TAF AMD
KSNA 260753Z 2608/2706 VRB04KT P6SM SCT025 BKN035
     FM261100 VRB04KT P6SM -SHRA BKN025 OVC035
     FM261600 VRB04KT P6SM VCSH SCT025 BKN035
     FM262100 18010KT P6SM VCSH SCT025 BKN035
     FM270200 18006KT P6SM VCSH SCT025 BKN035=

USA.gov is the U.S. government's official web portal to all federal, state and local government web resources and services.